Time;durP1;ratioP1;P1;durP2;ratioP2;P2;SDS_P1;SDS_P2;PMS_P1;PMS_P2;Temp;Humidity;BMP_temperature;BMP_pressure;BME280_temperature;BME280_humidity;BME280_pressure;Samples;Min_cycle;Max_cycle;Signal;HPM_P1;HPM_P2
2023/06/18 00:00:40;;;;;;;8.00;7.30;;;20.20;74.50;;;;;;5115772;28;20225;-70
2023/06/18 00:03:06;;;;;;;7.40;6.73;;;20.20;74.60;;;;;;5115004;28;20173;-69
2023/06/18 00:05:32;;;;;;;7.90;7.20;;;20.20;74.50;;;;;;5114693;28;20219;-69
2023/06/18 00:07:58;;;;;;;7.43;6.70;;;20.20;74.50;;;;;;5114560;28;20434;-69
2023/06/18 00:10:24;;;;;;;9.03;8.13;;;20.10;74.70;;;;;;5114929;28;20913;-69
2023/06/18 00:12:49;;;;;;;8.90;8.00;;;20.00;75.20;;;;;;5114890;28;20301;-69
2023/06/18 00:15:15;;;;;;;8.73;7.73;;;20.00;75.50;;;;;;5115597;28;20533;-69
2023/06/18 00:17:41;;;;;;;8.20;7.40;;;19.90;75.90;;;;;;5115177;28;20184;-69
2023/06/18 00:20:07;;;;;;;7.93;7.13;;;19.80;76.00;;;;;;5114372;28;20184;-70
2023/06/18 00:22:37;;;;;;;8.70;7.90;;;19.70;76.50;;;;;;5115019;28;20527;-69
2023/06/18 00:25:06;;;;;;;8.00;7.37;;;19.90;76.90;;;;;;5115089;28;20474;-69
2023/06/18 00:27:32;;;;;;;8.43;7.63;;;19.90;76.80;;;;;;5115011;28;20423;-69
2023/06/18 00:29:59;;;;;;;8.43;7.63;;;19.90;77.10;;;;;;5114800;28;20413;-69
2023/06/18 00:32:25;;;;;;;8.30;7.50;;;19.90;77.00;;;;;;5112552;28;20654;-70
2023/06/18 00:34:53;;;;;;;8.40;7.70;;;19.70;77.30;;;;;;5114259;28;20454;-70
2023/06/18 00:37:20;;;;;;;7.97;7.27;;;19.60;77.60;;;;;;5112844;28;20207;-70
2023/06/18 00:39:46;;;;;;;8.00;7.00;;;19.60;78.30;;;;;;5114220;28;20899;-70
2023/06/18 00:42:12;;;;;;;7.47;6.60;;;19.60;78.10;;;;;;5114771;28;20410;-69
2023/06/18 00:44:40;;;;;;;7.33;6.63;;;19.60;78.60;;;;;;5096406;28;21037;-70
2023/06/18 00:47:11;;;;;;;7.90;7.20;;;19.60;78.50;;;;;;5114365;28;20202;-70
2023/06/18 00:49:37;;;;;;;8.90;7.27;;;19.50;78.90;;;;;;5114713;28;20852;-70
2023/06/18 00:52:03;;;;;;;8.33;7.63;;;19.50;79.40;;;;;;5113809;28;20410;-70
2023/06/18 00:54:32;;;;;;;9.13;8.23;;;19.50;79.40;;;;;;5114328;28;20234;-70
2023/06/18 00:56:59;;;;;;;8.33;7.63;;;19.40;79.70;;;;;;5114212;28;20414;-69
2023/06/18 00:59:27;;;;;;;8.43;7.73;;;19.40;79.90;;;;;;5114403;28;20447;-69
2023/06/18 01:01:54;;;;;;;9.00;8.10;;;19.20;80.40;;;;;;5113619;28;20477;-70
2023/06/18 01:04:23;;;;;;;8.10;7.30;;;19.30;80.80;;;;;;5113828;28;20394;-70
2023/06/18 01:06:51;;;;;;;8.10;7.40;;;19.20;80.70;;;;;;5113424;28;20430;-70
2023/06/18 01:09:20;;;;;;;7.33;6.67;;;19.20;80.90;;;;;;5113785;28;20896;-70
2023/06/18 01:11:45;;;;;;;7.10;6.60;;;19.20;81.30;;;;;;5113878;28;20781;-70
2023/06/18 01:14:12;;;;;;;8.07;7.37;;;19.10;82.00;;;;;;5113971;28;20402;-70
2023/06/18 01:16:46;;;;;;;8.00;7.30;;;19.10;82.10;;;;;;5095208;28;20523;-70
2023/06/18 01:19:40;;;;;;;8.43;7.73;;;19.10;81.90;;;;;;5113910;28;20383;-70
2023/06/18 01:22:26;;;;;;;8.47;7.67;;;19.10;82.00;;;;;;5113530;28;20387;-70
2023/06/18 01:24:55;;;;;;;7.53;6.83;;;19.00;82.40;;;;;;5113631;28;20796;-70
2023/06/18 01:27:24;;;;;;;8.23;7.40;;;19.00;83.30;;;;;;5113314;28;20830;-70
2023/06/18 01:29:56;;;;;;;8.43;7.73;;;19.00;83.30;;;;;;5113634;28;20761;-70
2023/06/18 01:32:21;;;;;;;8.47;7.67;;;19.00;83.00;;;;;;5113545;28;20420;-70
2023/06/18 01:34:47;;;;;;;8.17;7.40;;;19.00;83.80;;;;;;5113722;28;20567;-70
2023/06/18 01:37:35;;;;;;;8.70;8.00;;;19.00;83.20;;;;;;5112485;28;20212;-71
2023/06/18 01:40:03;;;;;;;8.40;7.70;;;19.00;83.40;;;;;;5113663;28;20383;-70
2023/06/18 01:42:35;;;;;;;8.40;7.60;;;18.90;84.10;;;;;;5113653;28;20769;-70
2023/06/18 01:45:15;;;;;;;7.93;7.23;;;18.90;84.50;;;;;;5113440;28;20387;-71
2023/06/18 01:47:44;;;;;;;8.10;7.30;;;18.90;84.60;;;;;;5112993;28;20430;-71
2023/06/18 01:50:13;;;;;;;9.17;8.37;;;18.80;85.20;;;;;;5113326;28;20521;-70
2023/06/18 01:52:41;;;;;;;8.30;7.60;;;18.80;85.70;;;;;;5112917;28;20785;-70
2023/06/18 01:55:07;;;;;;;7.70;7.00;;;18.70;86.30;;;;;;5113185;28;20533;-69
2023/06/18 01:57:33;;;;;;;8.17;7.37;;;18.70;86.70;;;;;;5112999;28;20422;-70
2023/06/18 02:00:00;;;;;;;8.97;8.20;;;18.60;87.10;;;;;;5113308;28;20901;-70
2023/06/18 02:02:25;;;;;;;8.83;7.93;;;18.70;87.10;;;;;;5113125;28;20390;-70
2023/06/18 02:04:51;;;;;;;8.53;7.43;;;18.60;87.80;;;;;;5112990;28;20492;-70
2023/06/18 02:07:16;;;;;;;8.27;7.57;;;18.60;87.80;;;;;;5111868;28;20200;-70
2023/06/18 02:09:42;;;;;;;8.07;7.40;;;18.60;88.30;;;;;;5112824;28;20239;-70
2023/06/18 02:12:08;;;;;;;8.90;8.00;;;18.60;88.40;;;;;;5111775;28;20668;-70
2023/06/18 02:14:34;;;;;;;8.80;8.00;;;18.50;89.00;;;;;;5113136;28;20280;-69
2023/06/18 02:16:59;;;;;;;8.63;7.93;;;18.50;89.50;;;;;;5112613;28;20433;-70
2023/06/18 02:19:26;;;;;;;8.93;8.07;;;18.50;89.10;;;;;;5112681;28;20183;-69
2023/06/18 02:21:53;;;;;;;9.20;8.30;;;18.50;89.70;;;;;;5112237;28;20175;-69
2023/06/18 02:24:19;;;;;;;9.07;8.17;;;18.50;90.30;;;;;;5112869;28;20476;-70
2023/06/18 02:26:45;;;;;;;7.77;7.07;;;18.50;90.40;;;;;;5112827;28;20448;-70
2023/06/18 02:29:10;;;;;;;8.80;8.00;;;18.40;90.60;;;;;;5112928;28;20459;-69
2023/06/18 02:31:36;;;;;;;9.60;8.80;;;18.40;90.80;;;;;;5112190;28;20188;-70
2023/06/18 02:34:02;;;;;;;9.43;8.20;;;18.40;90.70;;;;;;5112610;28;20168;-70
2023/06/18 02:36:28;;;;;;;8.70;7.90;;;18.40;90.70;;;;;;5111388;28;20561;-70
2023/06/18 02:38:55;;;;;;;8.50;7.80;;;18.40;90.90;;;;;;5112577;28;20221;-70
2023/06/18 02:41:20;;;;;;;7.90;7.20;;;18.40;91.00;;;;;;5112854;28;20489;-70
2023/06/18 02:43:49;;;;;;;8.83;8.03;;;18.30;91.30;;;;;;5112599;28;20889;-70
2023/06/18 02:46:15;;;;;;;9.20;8.30;;;18.30;91.90;;;;;;5112829;28;20199;-70
2023/06/18 02:48:40;;;;;;;9.47;8.57;;;18.20;91.80;;;;;;5113150;28;20406;-70
2023/06/18 02:51:06;;;;;;;8.00;7.30;;;18.10;91.90;;;;;;5112712;28;20936;-70
2023/06/18 02:53:31;;;;;;;8.97;8.20;;;18.10;92.20;;;;;;5112172;28;20193;-70
2023/06/18 02:55:57;;;;;;;10.07;7.80;;;18.00;92.50;;;;;;5112322;28;20228;-70
2023/06/18 02:58:27;;;;;;;9.20;8.40;;;18.00;92.60;;;;;;5094033;28;20172;-70
2023/06/18 03:00:56;;;;;;;9.33;8.43;;;17.90;92.60;;;;;;5112315;28;20157;-69
2023/06/18 03:03:23;;;;;;;8.87;7.97;;;18.10;92.90;;;;;;5112311;28;20402;-69
2023/06/18 03:05:49;;;;;;;10.03;9.13;;;18.20;92.80;;;;;;5111829;28;20455;-69
2023/06/18 03:08:15;;;;;;;9.17;8.27;;;18.10;92.70;;;;;;5112197;28;20418;-69
2023/06/18 03:10:43;;;;;;;9.30;8.30;;;18.00;93.00;;;;;;5112348;28;20863;-68
2023/06/18 03:13:09;;;;;;;8.73;7.93;;;18.00;93.50;;;;;;5112212;28;20406;-69
2023/06/18 03:15:34;;;;;;;8.90;8.10;;;17.90;93.70;;;;;;5112146;28;20783;-69
2023/06/18 03:18:00;;;;;;;12.40;8.97;;;17.90;93.90;;;;;;5112303;28;20292;-69
2023/06/18 03:20:28;;;;;;;9.67;8.83;;;17.90;93.80;;;;;;5112381;28;20565;-69
2023/06/18 03:22:55;;;;;;;9.30;8.40;;;17.90;93.90;;;;;;5112151;28;20164;-68
2023/06/18 03:25:21;;;;;;;8.90;8.00;;;17.90;94.00;;;;;;5116663;28;20864;-69
2023/06/18 03:27:47;;;;;;;8.97;8.07;;;17.90;93.90;;;;;;5115631;28;20552;-69
2023/06/18 03:30:14;;;;;;;9.27;8.37;;;17.80;94.10;;;;;;5097425;28;20539;-70
2023/06/18 03:32:40;;;;;;;10.20;8.03;;;17.90;94.00;;;;;;5115682;28;20475;-69
2023/06/18 03:35:06;;;;;;;9.37;8.57;;;17.80;94.10;;;;;;5115748;28;20449;-69
2023/06/18 03:37:31;;;;;;;9.27;8.33;;;17.70;94.40;;;;;;5114220;28;20579;-69
2023/06/18 03:39:57;;;;;;;9.80;7.83;;;17.80;94.30;;;;;;5115712;28;20417;-69
2023/06/18 03:42:24;;;;;;;8.97;8.13;;;17.90;94.70;;;;;;5115788;28;20171;-69
2023/06/18 03:44:50;;;;;;;10.20;9.17;;;17.80;94.90;;;;;;5115579;28;20398;-69
2023/06/18 03:47:16;;;;;;;9.50;8.70;;;17.90;94.80;;;;;;5115593;28;20418;-69
2023/06/18 03:49:42;;;;;;;9.30;8.50;;;17.90;95.20;;;;;;5115620;28;20237;-69
2023/06/18 03:52:07;;;;;;;10.17;8.97;;;17.90;95.30;;;;;;5114916;28;20872;-69
2023/06/18 03:54:33;;;;;;;8.43;7.63;;;18.10;95.30;;;;;;5115502;28;20196;-69
2023/06/18 03:56:58;;;;;;;9.27;8.47;;;18.10;95.10;;;;;;5115381;28;20237;-70
2023/06/18 03:59:24;;;;;;;9.00;8.20;;;18.10;95.20;;;;;;5114728;28;20165;-69
2023/06/18 04:01:50;;;;;;;8.77;8.07;;;18.20;95.40;;;;;;5115340;28;20593;-68
2023/06/18 04:04:16;;;;;;;8.47;7.67;;;18.30;95.30;;;;;;5115616;28;20187;-69
2023/06/18 04:06:41;;;;;;;9.60;8.80;;;18.30;95.40;;;;;;5115363;28;20190;-69
2023/06/18 04:09:07;;;;;;;9.20;8.40;;;18.30;95.50;;;;;;5114942;28;20253;-69
2023/06/18 04:11:33;;;;;;;9.40;8.50;;;18.30;95.80;;;;;;5115052;28;20198;-69
2023/06/18 04:13:58;;;;;;;8.83;8.03;;;18.30;95.80;;;;;;5115156;28;20171;-69
2023/06/18 04:16:24;;;;;;;9.43;8.60;;;18.40;95.90;;;;;;5115405;28;20625;-69
2023/06/18 04:18:50;;;;;;;9.80;8.30;;;18.40;95.90;;;;;;5115255;28;20169;-68
2023/06/18 04:21:15;;;;;;;8.80;8.00;;;18.40;96.10;;;;;;5115353;28;20416;-69
2023/06/18 04:23:44;;;;;;;8.57;7.87;;;18.40;96.10;;;;;;5115129;28;20165;-69
2023/06/18 04:26:10;;;;;;;9.80;8.90;;;18.50;96.40;;;;;;5114966;28;20189;-69
2023/06/18 04:28:35;;;;;;;8.70;8.00;;;18.50;96.40;;;;;;5114551;28;20406;-69
2023/06/18 04:31:01;;;;;;;9.77;8.90;;;18.50;96.50;;;;;;5114611;28;20169;-68
2023/06/18 04:33:26;;;;;;;8.00;7.40;;;18.50;96.70;;;;;;5114383;28;20539;-68
2023/06/18 04:35:52;;;;;;;9.13;8.33;;;18.70;96.80;;;;;;5113428;28;20196;-68
2023/06/18 04:38:18;;;;;;;9.50;8.80;;;18.70;96.60;;;;;;5113805;28;20257;-69
2023/06/18 04:40:43;;;;;;;8.20;7.50;;;18.90;96.90;;;;;;5114401;28;20161;-69
2023/06/18 04:43:09;;;;;;;9.90;9.00;;;18.90;96.50;;;;;;5114392;28;20164;-67
2023/06/18 04:45:34;;;;;;;9.53;8.30;;;19.10;96.80;;;;;;5114339;28;20246;-68
2023/06/18 04:48:02;;;;;;;9.03;8.30;;;19.20;96.70;;;;;;5114549;28;20746;-68
2023/06/18 04:50:28;;;;;;;8.97;8.07;;;19.30;96.70;;;;;;5114545;28;20527;-67
2023/06/18 04:52:53;;;;;;;8.47;7.80;;;19.30;96.90;;;;;;5113718;28;20403;-68
2023/06/18 04:55:19;;;;;;;10.00;9.10;;;19.30;97.00;;;;;;5114122;28;20705;-68
2023/06/18 04:57:44;;;;;;;9.60;8.80;;;19.40;96.80;;;;;;5114496;28;20504;-68
2023/06/18 05:00:10;;;;;;;8.87;7.97;;;19.40;97.00;;;;;;5114013;28;20635;-68
2023/06/18 05:02:36;;;;;;;9.13;8.33;;;19.50;97.20;;;;;;5113969;28;20522;-68
2023/06/18 05:05:01;;;;;;;10.37;9.47;;;19.50;97.10;;;;;;5114120;28;20414;-68
2023/06/18 05:07:27;;;;;;;12.83;11.60;;;19.50;97.50;;;;;;5113214;28;20669;-68
2023/06/18 05:09:53;;;;;;;9.80;8.90;;;19.60;97.40;;;;;;5113791;28;20161;-68
2023/06/18 05:12:19;;;;;;;11.70;9.77;;;19.70;96.90;;;;;;5113910;28;20642;-68
2023/06/18 05:14:44;;;;;;;9.40;8.60;;;19.70;96.50;;;;;;5113538;28;20445;-69
2023/06/18 05:17:10;;;;;;;9.33;8.53;;;19.70;96.20;;;;;;5113652;28;20217;-68
2023/06/18 05:19:36;;;;;;;9.43;8.53;;;19.70;96.40;;;;;;5113971;28;20171;-68
2023/06/18 05:22:01;;;;;;;9.23;8.33;;;19.80;96.40;;;;;;5113117;28;20402;-67
2023/06/18 05:24:27;;;;;;;9.60;8.63;;;19.80;96.30;;;;;;5113507;28;20165;-67
2023/06/18 05:26:52;;;;;;;8.93;8.13;;;19.80;96.70;;;;;;5113313;28;20546;-67
2023/06/18 05:29:18;;;;;;;9.23;8.43;;;19.90;96.50;;;;;;5113771;28;20172;-67
2023/06/18 05:31:44;;;;;;;9.60;8.80;;;20.10;96.30;;;;;;5113723;28;20185;-70
2023/06/18 05:34:10;;;;;;;10.30;9.40;;;20.00;96.50;;;;;;5113718;28;20164;-70
2023/06/18 05:36:35;;;;;;;9.83;8.50;;;20.10;96.80;;;;;;5111936;28;21049;-69
2023/06/18 05:39:02;;;;;;;9.93;9.03;;;20.20;96.60;;;;;;5126577;22;20220;-68
2023/06/18 05:41:28;;;;;;;10.10;9.20;;;20.30;96.40;;;;;;5113352;28;20209;-68
2023/06/18 05:43:54;;;;;;;9.83;8.93;;;20.40;96.10;;;;;;5113025;28;20764;-67
2023/06/18 05:46:19;;;;;;;9.73;8.93;;;20.50;95.70;;;;;;5113034;28;20168;-67
2023/06/18 05:48:45;;;;;;;8.37;7.67;;;20.60;96.10;;;;;;5113620;28;20772;-68
2023/06/18 05:51:11;;;;;;;10.27;9.27;;;20.70;96.10;;;;;;5113120;28;20550;-68
2023/06/18 05:53:36;;;;;;;9.50;8.70;;;20.80;96.10;;;;;;5112778;28;20172;-67
2023/06/18 05:56:02;;;;;;;8.87;8.07;;;20.90;96.00;;;;;;5112882;28;20204;-67
2023/06/18 05:58:27;;;;;;;9.07;8.33;;;21.00;96.00;;;;;;5113170;28;20192;-67
2023/06/18 06:00:53;;;;;;;9.60;8.63;;;21.20;95.60;;;;;;5112839;28;20168;-67
2023/06/18 06:03:18;;;;;;;10.10;9.20;;;21.30;95.40;;;;;;5112714;28;20163;-69
2023/06/18 06:05:44;;;;;;;9.97;9.07;;;21.50;94.90;;;;;;5113377;28;20172;-68
2023/06/18 06:08:10;;;;;;;10.10;9.20;;;21.60;94.70;;;;;;5111742;28;20755;-68
2023/06/18 06:10:36;;;;;;;9.60;8.80;;;21.70;94.60;;;;;;5112607;28;20173;-68
2023/06/18 06:13:02;;;;;;;9.13;8.30;;;21.80;94.50;;;;;;5112738;28;20907;-67
2023/06/18 06:15:27;;;;;;;10.23;9.33;;;22.00;94.20;;;;;;5112565;28;20196;-67
2023/06/18 06:17:53;;;;;;;9.37;8.57;;;22.10;94.30;;;;;;5112673;28;20171;-67
2023/06/18 06:20:19;;;;;;;9.40;8.60;;;22.20;93.80;;;;;;5112500;28;20176;-68
2023/06/18 06:22:44;;;;;;;10.70;9.80;;;22.30;93.80;;;;;;5112067;28;20539;-67
2023/06/18 06:25:10;;;;;;;10.20;9.40;;;22.40;93.50;;;;;;5112301;28;20537;-67
2023/06/18 06:27:37;;;;;;;10.90;9.90;;;22.40;93.30;;;;;;5112661;28;20176;-67
2023/06/18 06:30:05;;;;;;;10.60;9.70;;;22.40;92.00;;;;;;5112599;28;20184;-69
2023/06/18 06:32:30;;;;;;;11.80;10.77;;;22.20;92.40;;;;;;5112400;28;20509;-69
2023/06/18 06:34:56;;;;;;;10.40;9.50;;;21.90;93.00;;;;;;5112223;28;20708;-67
2023/06/18 06:37:21;;;;;;;12.20;10.77;;;21.40;93.80;;;;;;5111107;28;20547;-68
2023/06/18 06:39:48;;;;;;;11.30;10.30;;;21.30;94.40;;;;;;5112225;28;20204;-68
2023/06/18 06:42:14;;;;;;;11.03;10.07;;;21.20;94.80;;;;;;5112164;28;20165;-68
2023/06/18 06:44:40;;;;;;;11.63;10.50;;;21.30;94.70;;;;;;5112272;28;20402;-68
2023/06/18 06:47:05;;;;;;;12.30;10.33;;;21.40;94.80;;;;;;5112469;28;20537;-67
2023/06/18 06:49:31;;;;;;;11.07;10.10;;;21.50;94.60;;;;;;5112089;28;20230;-66
2023/06/18 06:51:56;;;;;;;10.60;9.50;;;21.70;94.30;;;;;;5112054;28;20190;-68
2023/06/18 06:54:22;;;;;;;10.90;9.97;;;21.80;94.00;;;;;;5113647;28;20161;-67
2023/06/18 06:56:48;;;;;;;10.87;9.90;;;22.00;93.90;;;;;;5112387;28;20161;-67
2023/06/18 06:59:14;;;;;;;10.53;9.73;;;22.20;93.30;;;;;;5114012;28;20435;-67
2023/06/18 07:01:39;;;;;;;11.23;10.30;;;22.50;93.90;;;;;;5116265;28;20169;-67
2023/06/18 07:04:06;;;;;;;10.27;9.37;;;22.70;93.10;;;;;;5116405;28;20165;-67
2023/06/18 07:06:31;;;;;;;12.27;10.77;;;23.00;92.60;;;;;;5116251;28;20197;-67
2023/06/18 07:08:59;;;;;;;10.83;9.70;;;22.60;92.50;;;;;;5115870;28;20446;-68
2023/06/18 07:11:24;;;;;;;10.33;9.50;;;22.50;92.60;;;;;;5116171;28;20173;-67
2023/06/18 07:13:50;;;;;;;12.40;9.97;;;22.60;92.30;;;;;;5115673;28;20424;-67
2023/06/18 07:16:15;;;;;;;12.50;10.93;;;22.50;92.30;;;;;;5115686;28;20199;-67
2023/06/18 07:18:41;;;;;;;10.57;9.67;;;22.30;92.20;;;;;;5115923;28;20189;-66
2023/06/18 07:21:07;;;;;;;12.00;10.90;;;22.40;92.10;;;;;;5115600;28;20631;-67
2023/06/18 07:23:33;;;;;;;11.67;10.57;;;22.50;92.30;;;;;;5115574;28;20169;-68
2023/06/18 07:25:58;;;;;;;10.90;9.90;;;22.70;91.90;;;;;;5115362;28;20164;-67
2023/06/18 07:28:24;;;;;;;11.60;10.57;;;22.70;91.30;;;;;;5114905;28;20483;-67
2023/06/18 07:30:49;;;;;;;11.73;10.63;;;22.80;91.80;;;;;;5115611;28;20271;-68
2023/06/18 07:33:17;;;;;;;12.33;11.13;;;23.10;91.40;;;;;;5115778;28;20248;-66
2023/06/18 07:35:42;;;;;;;11.53;10.53;;;23.10;90.80;;;;;;5115867;28;20188;-67
2023/06/18 07:38:08;;;;;;;11.13;10.23;;;23.10;90.90;;;;;;5114263;28;20802;-67
2023/06/18 07:40:36;;;;;;;11.20;10.20;;;23.20;91.10;;;;;;5115635;28;20167;-68
2023/06/18 07:43:02;;;;;;;12.00;10.80;;;23.30;91.00;;;;;;5115433;28;20209;-67
2023/06/18 07:45:28;;;;;;;11.43;10.40;;;23.20;91.10;;;;;;5115337;28;20867;-67
2023/06/18 07:47:53;;;;;;;10.63;9.80;;;23.40;91.10;;;;;;5115394;28;20161;-67
2023/06/18 07:50:19;;;;;;;12.37;11.17;;;23.40;90.70;;;;;;5116275;28;20249;-68
2023/06/18 07:52:44;;;;;;;11.73;10.63;;;23.40;90.40;;;;;;5115117;28;20618;-65
2023/06/18 07:55:10;;;;;;;10.60;9.70;;;23.50;90.50;;;;;;5115409;28;20184;-67
2023/06/18 07:57:36;;;;;;;10.93;10.03;;;23.70;90.10;;;;;;5114818;28;20532;-66
2023/06/18 08:00:02;;;;;;;10.13;9.17;;;23.80;89.90;;;;;;5114855;28;20450;-68
2023/06/18 08:02:28;;;;;;;11.23;9.40;;;23.90;89.60;;;;;;5096326;28;20458;-67
2023/06/18 08:04:53;;;;;;;10.77;9.83;;;24.00;87.80;;;;;;5096667;28;20183;-66
2023/06/18 08:07:19;;;;;;;9.90;9.10;;;24.40;86.90;;;;;;5114590;28;20169;-67
2023/06/18 08:09:45;;;;;;;11.43;10.23;;;24.40;86.80;;;;;;5113877;28;20185;-67
2023/06/18 08:12:11;;;;;;;10.47;9.63;;;24.50;85.90;;;;;;5115692;28;20176;-67
2023/06/18 08:14:37;;;;;;;11.67;10.47;;;24.50;86.40;;;;;;5114371;28;20494;-67
2023/06/18 08:17:03;;;;;;;9.47;8.67;;;24.50;86.00;;;;;;5114354;28;20577;-67
2023/06/18 08:19:28;;;;;;;9.10;8.30;;;24.70;85.90;;;;;;5114487;28;20592;-67
2023/06/18 08:21:54;;;;;;;10.33;9.20;;;24.90;85.20;;;;;;5114410;28;20534;-67
2023/06/18 08:24:19;;;;;;;7.90;7.20;;;25.20;85.20;;;;;;5114989;28;20172;-67
2023/06/18 08:26:45;;;;;;;10.30;9.33;;;25.40;79.30;;;;;;5114063;28;20553;-67
2023/06/18 08:29:10;;;;;;;9.07;8.17;;;25.60;80.60;;;;;;5114174;28;20683;-66
2023/06/18 08:31:40;;;;;;;10.37;9.50;;;25.70;80.40;;;;;;5114657;28;20173;-67
2023/06/18 08:34:06;;;;;;;10.93;9.83;;;25.90;79.70;;;;;;5112661;28;20653;-66
2023/06/18 08:36:32;;;;;;;9.80;9.00;;;26.00;79.30;;;;;;5113098;28;20446;-67
2023/06/18 08:38:57;;;;;;;9.30;8.50;;;26.40;78.70;;;;;;5113662;28;20215;-68
2023/06/18 08:41:23;;;;;;;8.47;7.60;;;26.40;73.50;;;;;;5114169;28;20164;-67
2023/06/18 08:43:49;;;;;;;8.20;6.30;;;26.30;70.40;;;;;;5114142;28;20192;-68
2023/06/18 08:46:16;;;;;;;8.80;7.17;;;26.40;67.70;;;;;;5114059;28;20172;-66
2023/06/18 08:48:47;;;;;;;7.57;6.87;;;26.50;66.70;;;;;;5114294;28;20429;-67
2023/06/18 08:51:16;;;;;;;7.30;6.70;;;26.70;65.00;;;;;;5114069;28;20395;-67
2023/06/18 08:53:46;;;;;;;7.60;6.90;;;26.70;61.00;;;;;;5113742;28;21018;-67
2023/06/18 08:56:15;;;;;;;7.47;6.87;;;26.70;63.00;;;;;;5114012;28;20442;-67
2023/06/18 08:58:50;;;;;;;6.93;6.33;;;26.90;62.70;;;;;;5114041;28;20455;-66
2023/06/18 09:01:16;;;;;;;8.43;7.73;;;27.00;62.20;;;;;;5114039;28;20374;-67
2023/06/18 09:03:44;;;;;;;7.83;7.23;;;27.20;61.10;;;;;;5113791;28;20411;-68
2023/06/18 09:06:11;;;;;;;6.80;6.10;;;27.40;59.30;;;;;;5113381;28;20401;-68
2023/06/18 09:08:37;;;;;;;7.67;7.03;;;27.50;57.90;;;;;;5094988;28;20838;-67
2023/06/18 09:11:03;;;;;;;8.80;7.93;;;27.40;59.20;;;;;;5113822;28;20407;-67
2023/06/18 09:13:29;;;;;;;7.70;7.00;;;27.40;59.10;;;;;;5113486;28;20786;-66
2023/06/18 09:15:55;;;;;;;8.03;7.33;;;27.40;55.50;;;;;;5113685;28;20442;-67
2023/06/18 09:18:23;;;;;;;7.00;6.40;;;27.40;55.70;;;;;;5113486;28;20177;-67
2023/06/18 09:20:51;;;;;;;7.70;7.00;;;27.60;53.60;;;;;;5113369;28;20421;-67
2023/06/18 09:23:16;;;;;;;7.70;7.00;;;27.90;55.30;;;;;;5112904;28;20391;-66
2023/06/18 09:25:49;;;;;;;6.77;6.17;;;28.00;54.80;;;;;;5113610;28;20414;-66
2023/06/18 09:28:15;;;;;;;6.97;6.40;;;28.20;53.40;;;;;;5113653;28;20576;-67
2023/06/18 09:30:59;;;;;;;7.17;6.57;;;28.20;53.30;;;;;;5113266;28;20418;-68
2023/06/18 09:33:33;;;;;;;7.50;6.90;;;28.20;52.60;;;;;;5113696;28;20235;-68
2023/06/18 09:36:04;;;;;;;7.97;7.27;;;28.10;53.70;;;;;;5113427;28;20526;-67
2023/06/18 09:38:41;;;;;;;7.27;6.67;;;28.20;51.70;;;;;;5112550;28;20435;-67
2023/06/18 09:41:17;;;;;;;8.60;6.40;;;28.30;51.90;;;;;;5113228;28;20442;-68
2023/06/18 09:43:47;;;;;;;6.87;6.37;;;28.20;51.20;;;;;;5113114;28;20394;-66
2023/06/18 09:46:14;;;;;;;6.70;6.20;;;28.10;51.50;;;;;;5113413;28;20809;-67
2023/06/18 09:48:44;;;;;;;11.13;6.80;;;28.30;51.60;;;;;;5113103;28;20419;-66
2023/06/18 09:51:10;;;;;;;6.80;6.20;;;28.30;51.90;;;;;;5112676;28;20405;-67
2023/06/18 09:53:36;;;;;;;7.13;6.43;;;28.40;52.20;;;;;;5112810;28;20402;-67
2023/06/18 09:56:15;;;;;;;7.47;6.77;;;28.50;51.70;;;;;;5112694;28;20495;-67
2023/06/18 09:58:46;;;;;;;7.20;6.60;;;28.40;51.60;;;;;;5111731;28;20206;-67
2023/06/18 10:01:12;;;;;;;7.70;5.97;;;28.50;51.50;;;;;;5112951;28;20387;-67
2023/06/18 10:03:38;;;;;;;6.97;6.30;;;28.50;51.30;;;;;;5113403;28;20405;-67
2023/06/18 10:06:17;;;;;;;6.63;6.03;;;28.70;52.40;;;;;;5112633;28;20418;-67
2023/06/18 10:08:49;;;;;;;7.93;6.60;;;28.80;50.50;;;;;;5112398;28;20497;-67
2023/06/18 10:11:16;;;;;;;7.23;6.63;;;28.90;50.10;;;;;;5113070;28;20532;-67
2023/06/18 10:13:44;;;;;;;6.60;6.10;;;28.90;50.00;;;;;;5111912;28;20414;-67
2023/06/18 10:16:16;;;;;;;6.60;6.00;;;28.90;50.50;;;;;;5112788;28;20438;-67
2023/06/18 10:19:09;;;;;;;10.10;6.50;;;28.90;49.30;;;;;;5112689;28;20433;-68
2023/06/18 10:21:39;;;;;;;7.30;6.60;;;29.10;50.30;;;;;;5112259;28;20402;-67
2023/06/18 10:24:20;;;;;;;6.20;5.60;;;29.20;50.20;;;;;;5112658;28;20422;-67
2023/06/18 10:26:46;;;;;;;7.10;6.50;;;29.40;48.70;;;;;;5112651;28;20406;-67
2023/06/18 10:29:12;;;;;;;6.77;6.13;;;29.70;48.40;;;;;;5112055;28;20441;-68
2023/06/18 10:31:38;;;;;;;7.40;6.80;;;29.70;48.10;;;;;;5112142;28;20895;-68
2023/06/18 10:34:05;;;;;;;7.93;7.33;;;29.50;48.20;;;;;;5111506;28;20477;-68
2023/06/18 10:36:31;;;;;;;6.23;5.73;;;29.60;48.00;;;;;;5111347;28;20488;-67
2023/06/18 10:38:58;;;;;;;6.90;6.00;;;29.70;48.00;;;;;;5111920;28;20438;-68
2023/06/18 10:41:24;;;;;;;6.90;6.20;;;29.90;47.40;;;;;;5112733;28;20436;-67
2023/06/18 10:43:51;;;;;;;6.40;5.80;;;30.10;47.70;;;;;;5111947;28;20438;-68
2023/06/18 10:46:17;;;;;;;6.37;5.87;;;30.10;47.70;;;;;;5112523;28;20173;-67
2023/06/18 10:49:16;;;;;;;7.13;6.43;;;30.40;46.50;;;;;;5112332;28;20425;-67
2023/06/18 10:52:10;;;;;;;6.20;5.70;;;30.20;46.00;;;;;;5111974;28;20387;-66
2023/06/18 10:54:37;;;;;;;6.90;6.20;;;30.00;47.10;;;;;;5111984;28;20413;-67
2023/06/18 10:57:03;;;;;;;6.87;6.00;;;29.90;46.30;;;;;;5112140;28;20401;-67
2023/06/18 10:59:42;;;;;;;7.50;5.80;;;30.00;46.80;;;;;;5111879;28;20419;-67
2023/06/18 11:02:08;;;;;;;6.03;5.60;;;30.20;45.70;;;;;;5111965;28;20161;-68
2023/06/18 11:04:34;;;;;;;6.17;5.63;;;30.30;46.30;;;;;;5112161;28;20547;-67
2023/06/18 11:07:23;;;;;;;5.67;5.27;;;30.40;46.00;;;;;;5111778;28;20196;-68
2023/06/18 11:09:52;;;;;;;8.03;6.47;;;30.70;48.00;;;;;;5112140;28;20450;-67
2023/06/18 11:12:23;;;;;;;6.47;5.90;;;30.80;46.50;;;;;;5112158;28;20394;-68
2023/06/18 11:15:17;;;;;;;6.70;6.03;;;31.00;45.00;;;;;;5111738;28;20395;-68
2023/06/18 11:17:49;;;;;;;6.63;6.10;;;31.00;45.20;;;;;;5112169;28;20738;-68
2023/06/18 11:20:16;;;;;;;9.57;6.70;;;30.90;47.40;;;;;;5112234;28;20481;-68
2023/06/18 11:22:42;;;;;;;5.97;5.47;;;30.60;45.00;;;;;;5111753;28;20889;-68
2023/06/18 11:25:10;;;;;;;6.83;6.13;;;30.50;45.10;;;;;;5112018;28;20485;-67
2023/06/18 11:27:39;;;;;;;6.50;5.90;;;30.50;45.70;;;;;;5111821;28;20409;-68
2023/06/18 11:30:06;;;;;;;6.10;5.67;;;30.80;45.70;;;;;;5111434;28;20417;-66
2023/06/18 11:32:31;;;;;;;8.27;6.43;;;31.10;44.50;;;;;;5111673;28;20398;-68
2023/06/18 11:34:57;;;;;;;6.63;6.00;;;32.40;43.90;;;;;;5111652;28;20478;-67
2023/06/18 11:37:26;;;;;;;6.37;5.77;;;34.20;40.60;;;;;;5110483;28;20196;-66
2023/06/18 11:39:51;;;;;;;5.97;5.40;;;35.50;39.30;;;;;;5133643;22;20240;-71
2023/06/18 11:42:21;;;;;;;6.00;5.37;;;35.90;37.00;;;;;;5112065;28;20481;-70
2023/06/18 11:44:51;;;;;;;7.07;5.60;;;35.90;36.70;;;;;;5114333;28;20222;-71
2023/06/18 11:47:18;;;;;;;6.20;5.70;;;35.60;36.80;;;;;;5115799;28;20391;-71
2023/06/18 11:49:48;;;;;;;5.83;5.20;;;35.10;36.80;;;;;;5116166;28;20407;-71
2023/06/18 11:52:16;;;;;;;6.10;5.20;;;36.10;37.00;;;;;;5115608;28;20401;-71
2023/06/18 11:54:43;;;;;;;5.70;5.20;;;37.00;35.50;;;;;;5115727;28;20889;-71
2023/06/18 11:57:11;;;;;;;6.07;5.57;;;38.20;34.10;;;;;;5115681;28;20878;-71
2023/06/18 11:59:38;;;;;;;5.83;5.43;;;38.40;33.60;;;;;;5115791;28;20470;-70
2023/06/18 12:02:18;;;;;;;5.70;5.30;;;38.70;33.30;;;;;;5115453;28;20399;-71
2023/06/18 12:04:44;;;;;;;5.27;4.77;;;39.10;31.70;;;;;;5114857;28;20763;-70
2023/06/18 12:07:21;;;;;;;4.97;4.57;;;39.10;31.90;;;;;;5114436;28;20512;-71
2023/06/18 12:09:48;;;;;;;5.60;5.20;;;38.50;32.50;;;;;;5114934;28;20756;-72
2023/06/18 12:12:50;;;;;;;5.20;4.80;;;37.60;32.40;;;;;;5116119;28;20402;-71
2023/06/18 12:15:19;;;;;;;4.90;4.50;;;37.20;33.60;;;;;;5115118;28;20468;-71
2023/06/18 12:17:59;;;;;;;5.90;5.37;;;38.00;34.00;;;;;;5115496;28;20398;-71
2023/06/18 12:20:28;;;;;;;5.30;4.47;;;38.60;32.40;;;;;;5114820;28;20445;-71
2023/06/18 12:22:55;;;;;;;4.70;4.40;;;39.60;31.80;;;;;;5115118;28;20417;-72
2023/06/18 12:25:23;;;;;;;6.03;5.53;;;39.30;31.20;;;;;;5114658;28;20406;-72
2023/06/18 12:27:50;;;;;;;4.73;4.30;;;39.00;31.80;;;;;;5114672;28;20467;-71
2023/06/18 12:30:17;;;;;;;5.77;5.30;;;39.90;30.90;;;;;;5115294;28;20430;-71
2023/06/18 12:33:02;;;;;;;6.10;5.60;;;40.10;30.00;;;;;;5114956;28;20390;-71
2023/06/18 12:35:30;;;;;;;5.37;4.50;;;40.20;30.60;;;;;;5115446;28;20747;-71
2023/06/18 12:38:01;;;;;;;5.27;4.87;;;40.40;29.50;;;;;;5114691;28;20414;-70
2023/06/18 12:40:27;;;;;;;4.57;4.20;;;41.30;29.70;;;;;;5115086;28;20567;-71
2023/06/18 12:42:53;;;;;;;5.27;4.87;;;40.50;29.40;;;;;;5115087;28;21033;-70
2023/06/18 12:45:27;;;;;;;4.40;4.00;;;39.50;29.80;;;;;;5115075;28;20168;-71